Time;durP1;ratioP1;P1;durP2;ratioP2;P2;SDS_P1;SDS_P2;PMS_P1;PMS_P2;Temp;Humidity;BMP_temperature;BMP_pressure;BME280_temperature;BME280_humidity;BME280_pressure;Samples;Min_cycle;Max_cycle;Signal;HPM_P1;HPM_P2
2022/07/01 00:02:08;;;;;;;3.42;1.65;;;12.40;99.90;;;;;;5055167;28;20033;-62
2022/07/01 00:04:36;;;;;;;4.80;2.30;;;12.40;99.90;;;;;;5055344;28;20021;-63
2022/07/01 00:07:03;;;;;;;3.90;2.00;;;12.40;99.90;;;;;;5055281;28;20016;-61
2022/07/01 00:09:30;;;;;;;3.10;1.52;;;12.50;99.90;;;;;;5054598;28;20032;-62
2022/07/01 00:11:57;;;;;;;6.20;1.80;;;12.60;99.90;;;;;;5050513;28;20071;-62
2022/07/01 00:14:24;;;;;;;4.35;2.00;;;12.70;99.90;;;;;;5046875;28;20037;-62
2022/07/01 00:16:52;;;;;;;6.43;3.42;;;12.60;99.90;;;;;;5049249;28;20013;-62
2022/07/01 00:19:19;;;;;;;2.75;1.55;;;12.60;99.90;;;;;;5049436;28;20033;-62
2022/07/01 00:21:46;;;;;;;1.45;1.25;;;12.70;99.90;;;;;;5048767;28;20079;-62
2022/07/01 00:24:13;;;;;;;4.68;1.48;;;12.70;99.90;;;;;;5048233;28;20036;-63
2022/07/01 00:26:40;;;;;;;3.78;1.50;;;12.80;99.90;;;;;;5050462;28;21407;-62
2022/07/01 00:29:07;;;;;;;3.78;1.70;;;12.90;99.90;;;;;;5047923;28;20117;-64
2022/07/01 00:31:35;;;;;;;3.72;1.65;;;12.90;99.90;;;;;;5050256;28;20367;-61
2022/07/01 00:34:02;;;;;;;5.05;2.00;;;13.00;99.90;;;;;;5046504;28;20111;-62
2022/07/01 00:36:30;;;;;;;4.78;2.63;;;13.00;99.90;;;;;;5049763;28;20475;-63
2022/07/01 00:38:58;;;;;;;3.25;1.52;;;13.00;99.90;;;;;;5044319;28;20014;-63
2022/07/01 00:41:25;;;;;;;3.58;1.45;;;13.10;99.90;;;;;;5043593;28;20097;-62
2022/07/01 00:43:53;;;;;;;3.30;1.83;;;13.10;99.90;;;;;;5044933;28;20033;-63
2022/07/01 00:46:20;;;;;;;6.10;2.10;;;13.10;99.90;;;;;;5038923;28;20025;-62
2022/07/01 00:48:47;;;;;;;2.15;1.85;;;13.10;99.90;;;;;;5040162;28;20120;-62
2022/07/01 00:51:15;;;;;;;4.18;2.67;;;13.10;99.90;;;;;;5046217;28;20456;-62
2022/07/01 00:53:42;;;;;;;3.38;2.10;;;13.20;99.90;;;;;;5045979;28;20025;-63
2022/07/01 00:56:09;;;;;;;3.35;1.77;;;13.20;99.90;;;;;;5041747;28;20076;-62
2022/07/01 00:58:37;;;;;;;5.10;2.25;;;13.10;99.90;;;;;;5042774;28;20014;-62
2022/07/01 01:01:04;;;;;;;6.88;2.40;;;13.10;99.90;;;;;;5045694;28;20017;-63
2022/07/01 01:03:31;;;;;;;3.65;2.05;;;13.00;99.90;;;;;;5045784;28;20020;-62
2022/07/01 01:05:59;;;;;;;2.65;1.88;;;12.90;99.90;;;;;;5046150;28;20017;-63
2022/07/01 01:08:26;;;;;;;3.88;1.83;;;12.90;99.90;;;;;;5044556;28;20024;-60
2022/07/01 01:10:54;;;;;;;6.43;2.10;;;12.80;99.90;;;;;;5044645;28;20108;-63
2022/07/01 01:13:21;;;;;;;3.72;2.10;;;12.70;99.90;;;;;;5047383;28;20029;-60
2022/07/01 01:15:49;;;;;;;3.03;1.73;;;12.80;99.90;;;;;;5045623;28;20056;-63
2022/07/01 01:18:16;;;;;;;4.43;1.77;;;12.90;99.90;;;;;;5047401;28;20048;-63
2022/07/01 01:20:43;;;;;;;6.43;2.55;;;12.90;99.90;;;;;;5043981;28;20064;-63
2022/07/01 01:23:10;;;;;;;4.78;1.60;;;12.90;99.90;;;;;;5037909;28;20081;-63
2022/07/01 01:25:38;;;;;;;3.22;2.63;;;12.90;99.90;;;;;;5040997;28;20029;-63
2022/07/01 01:28:05;;;;;;;2.05;1.67;;;12.90;99.90;;;;;;5028346;28;20025;-64
2022/07/01 01:30:32;;;;;;;3.42;1.25;;;13.10;99.90;;;;;;5044593;28;20041;-65
2022/07/01 01:32:59;;;;;;;1.90;1.27;;;13.10;99.90;;;;;;5044632;28;20500;-62
2022/07/01 01:35:26;;;;;;;3.42;1.55;;;13.00;99.90;;;;;;5044857;28;20018;-62
2022/07/01 01:37:53;;;;;;;3.03;1.40;;;12.90;99.90;;;;;;5046633;28;20037;-63
2022/07/01 01:40:21;;;;;;;3.35;1.50;;;13.00;99.90;;;;;;5037183;28;20552;-64
2022/07/01 01:42:48;;;;;;;6.32;2.40;;;12.90;99.90;;;;;;5043469;28;20495;-64
2022/07/01 01:45:15;;;;;;;3.47;2.25;;;12.90;99.90;;;;;;5043078;28;20025;-63
2022/07/01 01:47:42;;;;;;;4.05;1.90;;;13.00;99.90;;;;;;5039580;28;20047;-63
2022/07/01 01:50:13;;;;;;;5.00;1.70;;;13.00;99.90;;;;;;5037592;28;20044;-63
2022/07/01 01:52:43;;;;;;;3.45;1.83;;;13.10;99.90;;;;;;5023056;28;20352;-62
2022/07/01 01:55:10;;;;;;;4.07;1.90;;;13.20;99.90;;;;;;5046394;28;20032;-61
2022/07/01 01:57:38;;;;;;;3.63;2.00;;;13.20;99.90;;;;;;5043660;28;20102;-63
2022/07/01 02:00:07;;;;;;;4.38;1.98;;;13.20;99.90;;;;;;5038375;28;20033;-62
2022/07/01 02:02:36;;;;;;;4.25;1.50;;;13.20;99.90;;;;;;5022603;28;20036;-62
2022/07/01 02:05:05;;;;;;;3.42;1.40;;;13.20;99.90;;;;;;5035940;28;20112;-63
2022/07/01 02:07:32;;;;;;;4.03;1.40;;;13.10;99.90;;;;;;5044099;28;20037;-63
2022/07/01 02:09:59;;;;;;;9.90;4.50;;;13.20;99.90;;;;;;5040274;28;20074;-65
2022/07/01 02:12:26;;;;;;;5.50;2.17;;;13.10;99.90;;;;;;5041241;28;20452;-64
2022/07/01 02:14:54;;;;;;;8.15;2.05;;;13.20;99.90;;;;;;5033434;28;20018;-64
2022/07/01 02:17:21;;;;;;;5.15;2.30;;;13.10;99.90;;;;;;5033376;28;20021;-64
2022/07/01 02:19:48;;;;;;;8.70;4.63;;;13.10;99.90;;;;;;5033468;28;20079;-64
2022/07/01 02:22:15;;;;;;;4.63;1.75;;;13.00;99.90;;;;;;5033533;28;20514;-64
2022/07/01 02:24:43;;;;;;;3.67;1.70;;;13.00;99.90;;;;;;5046493;28;20028;-67
2022/07/01 02:27:12;;;;;;;5.32;1.70;;;13.00;99.90;;;;;;5039571;28;20025;-64
2022/07/01 02:29:41;;;;;;;3.65;1.77;;;13.20;99.90;;;;;;5044937;28;20369;-64
2022/07/01 02:32:09;;;;;;;3.85;1.65;;;13.20;99.90;;;;;;5036975;28;20025;-63
2022/07/01 02:34:36;;;;;;;7.22;2.60;;;13.20;99.90;;;;;;5032976;28;20013;-65
2022/07/01 02:37:04;;;;;;;5.75;2.10;;;13.20;99.90;;;;;;5042549;28;20025;-66
2022/07/01 02:39:33;;;;;;;3.42;2.65;;;13.20;99.90;;;;;;5047258;28;20075;-67
2022/07/01 02:44:48;;;;;;;13.40;8.38;;;13.20;99.90;;;;;;5044017;28;20059;-66
2022/07/01 02:47:15;;;;;;;3.33;2.05;;;13.20;99.90;;;;;;5041818;28;20021;-69
2022/07/01 02:49:43;;;;;;;2.95;1.77;;;13.30;99.90;;;;;;5053501;28;20031;-66
2022/07/01 02:52:10;;;;;;;3.63;1.90;;;13.30;99.90;;;;;;5038144;28;20026;-66
2022/07/01 02:54:37;;;;;;;1.98;1.40;;;13.30;99.90;;;;;;5043876;28;20026;-67
2022/07/01 02:57:04;;;;;;;4.82;1.77;;;13.20;99.90;;;;;;5032433;28;20108;-68
2022/07/01 02:59:31;;;;;;;6.85;2.30;;;13.20;99.90;;;;;;5039540;28;20056;-68
2022/07/01 03:01:59;;;;;;;3.53;2.00;;;13.10;99.90;;;;;;5039458;28;20025;-67
2022/07/01 03:04:26;;;;;;;5.00;2.08;;;13.10;99.90;;;;;;5040064;28;20057;-66
2022/07/01 03:06:55;;;;;;;3.58;1.60;;;13.10;99.90;;;;;;5038215;28;20032;-69
2022/07/01 03:09:22;;;;;;;4.38;2.17;;;13.20;99.90;;;;;;5036777;28;20017;-65
2022/07/01 03:11:49;;;;;;;5.30;4.10;;;13.10;99.90;;;;;;5046740;28;20402;-65
2022/07/01 03:14:16;;;;;;;3.13;2.30;;;13.00;99.90;;;;;;5049423;28;20348;-68
2022/07/01 03:16:43;;;;;;;2.15;1.60;;;13.00;99.90;;;;;;5044889;28;20657;-65
2022/07/01 03:19:10;;;;;;;4.20;1.80;;;13.00;99.90;;;;;;5048419;28;20479;-67
2022/07/01 03:21:38;;;;;;;5.80;2.10;;;13.00;99.90;;;;;;5048084;28;20100;-65
2022/07/01 03:24:05;;;;;;;6.40;2.05;;;13.00;99.90;;;;;;5046148;28;20018;-67
2022/07/01 03:26:32;;;;;;;6.18;2.30;;;13.00;99.90;;;;;;5043741;28;20021;-65
2022/07/01 03:28:59;;;;;;;6.45;1.70;;;13.10;99.90;;;;;;5044051;28;20013;-66
2022/07/01 03:31:26;;;;;;;4.95;1.48;;;13.10;99.90;;;;;;5045921;28;20071;-67
2022/07/01 03:33:53;;;;;;;7.18;3.58;;;13.00;99.90;;;;;;5044271;28;20379;-66
2022/07/01 03:36:20;;;;;;;2.05;0.93;;;13.00;99.90;;;;;;5042031;28;20017;-66
2022/07/01 03:38:48;;;;;;;8.70;5.30;;;13.00;99.90;;;;;;5044982;28;20056;-66
2022/07/01 03:41:15;;;;;;;4.97;1.75;;;12.90;99.90;;;;;;5041751;28;20029;-67
2022/07/01 03:43:42;;;;;;;3.50;1.40;;;12.90;99.90;;;;;;5044521;28;20482;-64
2022/07/01 03:46:09;;;;;;;4.45;1.10;;;12.90;99.90;;;;;;5043533;28;20033;-65
2022/07/01 03:48:36;;;;;;;5.00;1.55;;;12.90;99.90;;;;;;5044401;28;20112;-65
2022/07/01 03:51:03;;;;;;;1.73;1.00;;;12.90;99.90;;;;;;5048985;28;20013;-67
2022/07/01 03:56:15;;;;;;;2.50;1.30;;;12.80;99.90;;;;;;5041059;28;20028;-66
2022/07/01 03:58:42;;;;;;;2.78;1.10;;;12.80;99.90;;;;;;5046017;28;20034;-68
2022/07/01 04:01:09;;;;;;;2.22;1.55;;;12.60;99.90;;;;;;5044478;28;20032;-66
2022/07/01 04:03:36;;;;;;;5.05;1.30;;;12.60;99.90;;;;;;5048006;28;20368;-68
2022/07/01 04:06:04;;;;;;;4.05;1.88;;;12.70;99.90;;;;;;5038234;28;20028;-65
2022/07/01 04:08:31;;;;;;;2.45;1.20;;;12.70;99.90;;;;;;5033063;28;20025;-65
2022/07/01 04:10:58;;;;;;;3.03;1.30;;;12.60;99.90;;;;;;5035064;28;20049;-65
2022/07/01 04:13:26;;;;;;;4.30;2.35;;;12.60;99.90;;;;;;5042783;28;20095;-65
2022/07/01 04:15:54;;;;;;;3.15;1.40;;;12.60;99.90;;;;;;5046328;28;20014;-65
2022/07/01 04:18:21;;;;;;;1.73;0.90;;;12.60;99.90;;;;;;5045884;28;20109;-65
2022/07/01 04:23:33;;;;;;;2.90;1.40;;;12.60;99.90;;;;;;5035706;28;20060;-65
2022/07/01 04:26:01;;;;;;;2.95;1.00;;;12.60;99.90;;;;;;5042576;28;20027;-67
2022/07/01 04:28:28;;;;;;;3.45;1.10;;;12.60;99.90;;;;;;5039414;28;20531;-64
2022/07/01 04:30:55;;;;;;;1.50;1.00;;;12.60;99.90;;;;;;5024359;28;20458;-65
2022/07/01 04:33:22;;;;;;;3.50;1.17;;;12.50;99.90;;;;;;5041366;28;20464;-66
2022/07/01 04:35:49;;;;;;;2.67;2.40;;;12.40;99.90;;;;;;5036171;28;20204;-65
2022/07/01 04:38:16;;;;;;;2.40;1.13;;;12.40;99.90;;;;;;5036029;28;20018;-64
2022/07/01 04:41:58;;;;;;;3.88;2.97;;;12.40;99.90;;;;;;5036814;28;20096;-64
2022/07/01 04:43:31;;;;;;;2.25;1.50;;;12.40;99.90;;;;;;5051050;28;20025;-67
2022/07/01 04:45:58;;;;;;;4.32;1.60;;;12.30;99.90;;;;;;5038055;28;20047;-64
2022/07/01 04:48:25;;;;;;;6.00;3.83;;;12.30;99.90;;;;;;5046599;28;20086;-64
2022/07/01 04:50:52;;;;;;;3.72;2.17;;;12.20;99.90;;;;;;5058130;28;20587;-67
2022/07/01 04:53:19;;;;;;;8.48;4.28;;;12.20;99.90;;;;;;5059898;28;20131;-64
2022/07/01 04:55:46;;;;;;;5.00;2.13;;;12.10;99.90;;;;;;5059119;28;20108;-64
2022/07/01 04:58:13;;;;;;;5.63;2.85;;;12.10;99.90;;;;;;5058802;28;20036;-65
2022/07/01 05:00:41;;;;;;;7.75;3.95;;;12.00;99.90;;;;;;5059671;28;20055;-65
2022/07/01 05:03:08;;;;;;;5.18;2.80;;;12.10;99.90;;;;;;5049335;28;20620;-72
2022/07/01 05:05:35;;;;;;;3.03;1.63;;;12.10;99.90;;;;;;5047723;28;20103;-65
2022/07/01 05:08:02;;;;;;;5.03;1.88;;;12.10;99.90;;;;;;5032368;28;20021;-65
2022/07/01 05:10:29;;;;;;;5.63;2.50;;;12.00;99.90;;;;;;5045044;28;20017;-65
2022/07/01 05:12:56;;;;;;;4.50;2.10;;;11.90;99.90;;;;;;5047996;28;20082;-65
2022/07/01 05:15:23;;;;;;;9.30;3.25;;;11.80;99.90;;;;;;5046436;28;20018;-64
2022/07/01 05:23:21;;;;;;;9.32;4.88;;;11.80;99.90;;;;;;5042077;28;20079;-65
2022/07/01 05:25:48;;;;;;;9.00;1.73;;;11.80;99.90;;;;;;5044190;28;20454;-65
2022/07/01 05:28:15;;;;;;;5.03;3.13;;;11.80;99.90;;;;;;5040213;28;20034;-65
2022/07/01 05:30:43;;;;;;;8.18;2.85;;;11.80;99.90;;;;;;5058087;23;20423;-65
2022/07/01 05:33:10;;;;;;;2.22;1.70;;;11.70;99.90;;;;;;5060566;28;20039;-66
2022/07/01 05:35:37;;;;;;;5.72;1.75;;;11.80;99.90;;;;;;5056926;28;20062;-65
2022/07/01 05:38:04;;;;;;;3.83;2.53;;;11.70;99.90;;;;;;5042975;28;20025;-66
2022/07/01 05:40:32;;;;;;;3.88;2.15;;;11.60;99.90;;;;;;5058749;28;20386;-65
2022/07/01 05:42:59;;;;;;;5.90;3.47;;;11.50;99.90;;;;;;5059059;28;20099;-66
2022/07/01 05:45:26;;;;;;;2.05;1.63;;;11.50;99.90;;;;;;5058858;28;20104;-65
2022/07/01 05:47:53;;;;;;;4.70;2.63;;;11.60;99.90;;;;;;5058522;28;20086;-67
2022/07/01 05:50:20;;;;;;;6.63;4.03;;;11.50;99.90;;;;;;5056408;28;20034;-68
2022/07/01 05:52:47;;;;;;;6.28;3.00;;;11.50;99.90;;;;;;5060349;28;20032;-66
2022/07/01 05:55:14;;;;;;;4.80;2.35;;;11.50;99.90;;;;;;5060750;28;20059;-66
2022/07/01 05:57:41;;;;;;;4.00;3.40;;;11.40;99.90;;;;;;5058452;28;20016;-66
2022/07/01 06:00:09;;;;;;;5.95;4.45;;;11.40;99.90;;;;;;5044280;28;20478;-67
2022/07/01 06:02:36;;;;;;;6.15;4.25;;;11.40;99.90;;;;;;5043443;28;20024;-65
2022/07/01 06:05:04;;;;;;;5.68;3.60;;;11.40;99.90;;;;;;5054684;28;20075;-66
2022/07/01 06:07:31;;;;;;;4.57;2.30;;;11.30;99.90;;;;;;5056488;28;20554;-65
2022/07/01 06:09:59;;;;;;;4.88;2.58;;;11.30;99.90;;;;;;5057646;28;20039;-65
2022/07/01 06:12:26;;;;;;;16.98;11.15;;;11.30;99.90;;;;;;5054754;28;20036;-62
2022/07/01 06:14:53;;;;;;;12.82;8.68;;;11.30;99.90;;;;;;5056808;28;20387;-63
2022/07/01 06:17:20;;;;;;;10.82;7.20;;;11.20;99.90;;;;;;5057010;28;20403;-63
2022/07/01 06:19:47;;;;;;;4.88;3.35;;;11.20;99.90;;;;;;5057808;28;20071;-62
2022/07/01 06:22:17;;;;;;;6.78;3.55;;;11.20;99.90;;;;;;5055019;28;20033;-64
2022/07/01 06:24:47;;;;;;;5.00;2.85;;;11.10;99.90;;;;;;5056924;28;20060;-61
2022/07/01 06:27:14;;;;;;;4.13;2.70;;;11.20;99.90;;;;;;5036411;28;20091;-61
2022/07/01 06:29:42;;;;;;;4.65;2.70;;;11.10;99.90;;;;;;5054977;28;20041;-62
2022/07/01 06:32:09;;;;;;;6.97;2.92;;;11.10;99.90;;;;;;5060005;28;20128;-62
2022/07/01 06:34:37;;;;;;;5.28;4.10;;;11.10;99.90;;;;;;5057272;28;20619;-61
2022/07/01 06:37:04;;;;;;;4.53;2.95;;;11.20;99.90;;;;;;5054951;28;20033;-61
2022/07/01 06:39:31;;;;;;;6.07;4.25;;;11.20;99.90;;;;;;5053711;28;20024;-63
2022/07/01 06:41:58;;;;;;;6.53;2.90;;;11.10;99.90;;;;;;5039091;28;20111;-62
2022/07/01 06:44:25;;;;;;;4.43;2.75;;;11.20;99.90;;;;;;5057067;28;20020;-64
2022/07/01 06:46:58;;;;;;;3.34;2.51;;;11.10;99.90;;;;;;4549601;28;10002890;-64
2022/07/01 06:49:25;;;;;;;6.43;2.58;;;11.20;99.90;;;;;;5054864;28;20372;-62
2022/07/01 06:51:52;;;;;;;4.78;2.58;;;11.20;99.90;;;;;;5055154;28;20090;-63
2022/07/01 06:54:19;;;;;;;5.70;2.30;;;11.20;99.90;;;;;;5053314;28;20060;-60
2022/07/01 06:56:46;;;;;;;6.72;2.55;;;11.20;99.90;;;;;;5051361;28;20024;-63
2022/07/01 06:59:15;;;;;;;4.28;2.88;;;11.10;99.90;;;;;;5054568;28;20021;-64
2022/07/01 07:01:42;;;;;;;3.80;2.35;;;11.10;99.90;;;;;;5053474;28;20025;-64
2022/07/01 07:04:09;;;;;;;3.70;2.17;;;11.10;99.90;;;;;;5051694;28;20025;-61
2022/07/01 07:06:36;;;;;;;3.90;2.03;;;11.10;99.90;;;;;;5053656;28;20025;-63
2022/07/01 07:09:04;;;;;;;5.20;2.75;;;11.00;99.90;;;;;;5054744;28;20582;-63
2022/07/01 07:11:31;;;;;;;3.95;2.33;;;11.10;99.90;;;;;;5051194;28;20090;-62
2022/07/01 07:13:58;;;;;;;4.60;2.42;;;11.10;99.90;;;;;;5050895;28;20534;-62
2022/07/01 07:16:26;;;;;;;4.25;2.00;;;11.10;99.90;;;;;;5053189;28;20388;-63
2022/07/01 07:18:53;;;;;;;6.00;2.33;;;11.20;99.90;;;;;;5053956;28;20029;-62
2022/07/01 07:21:20;;;;;;;3.30;1.75;;;11.20;99.90;;;;;;5056951;28;20021;-64
2022/07/01 07:23:47;;;;;;;3.88;2.50;;;11.20;99.90;;;;;;5055379;28;20040;-61
2022/07/01 07:26:15;;;;;;;4.80;2.22;;;11.20;99.90;;;;;;5054283;28;20044;-64
2022/07/01 07:28:42;;;;;;;3.05;2.15;;;11.30;99.90;;;;;;5050139;28;20170;-62
2022/07/01 07:31:09;;;;;;;4.38;3.45;;;11.30;99.90;;;;;;5053142;28;20090;-62
2022/07/01 07:33:36;;;;;;;7.88;4.70;;;11.20;99.90;;;;;;5054757;28;20544;-64
2022/07/01 07:36:04;;;;;;;2.80;2.15;;;11.10;99.90;;;;;;5053300;28;20245;-67
2022/07/01 07:38:31;;;;;;;3.13;1.85;;;11.10;99.90;;;;;;5052105;28;20324;-64
2022/07/01 07:41:03;;;;;;;3.85;1.80;;;11.10;99.90;;;;;;5053150;28;20086;-64
2022/07/01 07:43:31;;;;;;;4.70;2.45;;;11.20;99.90;;;;;;5055100;28;20040;-66
2022/07/01 07:45:58;;;;;;;6.65;4.00;;;11.20;99.90;;;;;;5055848;28;20495;-64
2022/07/01 07:48:25;;;;;;;5.53;1.90;;;11.20;99.90;;;;;;5062992;28;20036;-66
2022/07/01 07:50:52;;;;;;;2.88;1.80;;;11.20;99.90;;;;;;5052686;28;20035;-67
2022/07/01 07:53:19;;;;;;;3.40;1.60;;;11.10;99.90;;;;;;5050969;28;20565;-64
2022/07/01 07:55:46;;;;;;;3.10;1.52;;;11.10;99.90;;;;;;5054566;28;20059;-63
2022/07/01 07:58:14;;;;;;;1.98;1.58;;;11.10;99.90;;;;;;5052396;28;20367;-64
2022/07/01 08:00:41;;;;;;;5.72;1.55;;;11.10;99.90;;;;;;5033207;28;20383;-64
2022/07/01 08:03:08;;;;;;;5.22;1.58;;;11.10;99.90;;;;;;5051010;28;20458;-65
2022/07/01 08:05:35;;;;;;;4.47;1.48;;;11.10;99.90;;;;;;5052621;28;20403;-65
2022/07/01 08:08:02;;;;;;;1.92;1.65;;;11.10;99.90;;;;;;5052378;28;20569;-66
2022/07/01 08:10:29;;;;;;;3.72;1.60;;;11.00;99.90;;;;;;5051898;28;20413;-66
2022/07/01 08:12:57;;;;;;;3.22;1.40;;;11.00;99.90;;;;;;5051071;28;20425;-67
2022/07/01 08:15:24;;;;;;;3.75;1.60;;;11.00;99.90;;;;;;5046433;28;20053;-65
2022/07/01 08:17:52;;;;;;;2.72;1.80;;;11.10;99.90;;;;;;5058313;28;20035;-66
2022/07/01 08:20:19;;;;;;;3.85;2.40;;;11.00;99.90;;;;;;5057175;28;20040;-63
2022/07/01 08:22:46;;;;;;;2.17;1.40;;;11.00;99.90;;;;;;5050064;28;20057;-63
2022/07/01 08:25:13;;;;;;;1.30;1.10;;;11.00;99.90;;;;;;5055045;28;20025;-63
2022/07/01 08:27:40;;;;;;;1.60;1.40;;;10.90;99.90;;;;;;5061525;28;20016;-63
2022/07/01 08:30:08;;;;;;;3.58;1.52;;;11.00;99.90;;;;;;5055037;28;20052;-62
2022/07/01 08:32:35;;;;;;;2.00;1.42;;;11.00;99.90;;;;;;5051341;28;20017;-64
2022/07/01 08:35:03;;;;;;;1.95;1.20;;;10.90;99.90;;;;;;5053806;28;20017;-63
2022/07/01 08:37:30;;;;;;;2.80;1.30;;;10.90;99.90;;;;;;5057512;28;20032;-63
2022/07/01 08:39:59;;;;;;;1.52;1.10;;;10.90;99.90;;;;;;5055707;28;20095;-63
2022/07/01 08:42:26;;;;;;;1.67;1.27;;;10.80;99.90;;;;;;5051516;28;20067;-63
2022/07/01 08:44:53;;;;;;;2.88;1.40;;;10.90;99.90;;;;;;5054093;28;20029;-63
2022/07/01 08:47:20;;;;;;;4.50;1.40;;;10.90;99.90;;;;;;5063908;28;20033;-63
2022/07/01 08:49:47;;;;;;;2.47;1.65;;;10.90;99.90;;;;;;5055944;28;20131;-63
2022/07/01 08:52:15;;;;;;;3.00;1.50;;;10.90;99.90;;;;;;5049516;28;20020;-63
2022/07/01 08:54:42;;;;;;;2.33;1.55;;;10.90;99.90;;;;;;5053572;28;20013;-63
2022/07/01 08:57:09;;;;;;;3.33;1.17;;;10.90;99.90;;;;;;5059063;28;20101;-63
2022/07/01 08:59:36;;;;;;;3.58;1.63;;;11.00;99.90;;;;;;5057142;28;20017;-63
2022/07/01 09:02:05;;;;;;;2.97;1.50;;;10.90;99.90;;;;;;5052785;28;20083;-63
2022/07/01 09:04:34;;;;;;;2.15;1.50;;;10.90;99.90;;;;;;5045247;28;20029;-64
2022/07/01 09:07:09;;;;;;;4.57;1.80;;;10.90;99.90;;;;;;5061012;28;20032;-62
2022/07/01 09:09:38;;;;;;;1.90;1.58;;;10.90;99.90;;;;;;5056146;28;20506;-62
2022/07/01 09:12:07;;;;;;;2.72;1.58;;;11.00;99.90;;;;;;5053571;28;20028;-62
2022/07/01 09:14:36;;;;;;;3.90;1.77;;;11.00;99.90;;;;;;5053601;28;20025;-62
2022/07/01 09:17:05;;;;;;;2.75;1.70;;;11.10;99.90;;;;;;5058456;28;20024;-62
2022/07/01 09:19:37;;;;;;;3.45;1.90;;;11.10;99.90;;;;;;5057828;28;20029;-62
2022/07/01 09:22:05;;;;;;;2.63;1.77;;;11.10;99.90;;;;;;5053122;28;20029;-62
2022/07/01 09:24:41;;;;;;;3.85;2.00;;;11.10;99.90;;;;;;5058398;28;20029;-62
2022/07/01 09:27:16;;;;;;;3.42;1.73;;;11.10;99.90;;;;;;5060377;28;20044;-62
2022/07/01 09:29:50;;;;;;;1.90;1.65;;;11.10;99.90;;;;;;5054009;28;20040;-61
2022/07/01 09:32:21;;;;;;;5.10;1.98;;;11.10;99.90;;;;;;5049405;28;20569;-62
2022/07/01 09:34:51;;;;;;;2.30;1.98;;;11.10;99.90;;;;;;5052181;28;20073;-62
2022/07/01 09:37:21;;;;;;;3.65;1.63;;;11.10;99.90;;;;;;5060690;28;20151;-62
2022/07/01 09:39:50;;;;;;;3.13;2.20;;;11.00;99.90;;;;;;5056033;28;20065;-61
2022/07/01 09:42:19;;;;;;;2.90;2.20;;;11.00;99.90;;;;;;5052453;28;20024;-63
2022/07/01 09:45:10;;;;;;;2.47;1.98;;;11.00;99.90;;;;;;5052344;28;20471;-62
2022/07/01 09:47:41;;;;;;;2.88;1.85;;;11.00;99.90;;;;;;5055158;28;20033;-62
2022/07/01 09:50:09;;;;;;;3.83;2.15;;;10.90;99.90;;;;;;5057218;28;20037;-62
2022/07/01 09:52:38;;;;;;;4.35;2.53;;;10.90;99.90;;;;;;5050555;28;20062;-61
2022/07/01 09:55:07;;;;;;;3.80;2.30;;;10.90;99.90;;;;;;5049364;28;20039;-62
2022/07/01 09:57:35;;;;;;;2.90;2.30;;;10.90;99.90;;;;;;5061792;28;20025;-62
2022/07/01 10:00:04;;;;;;;2.55;2.20;;;11.00;99.90;;;;;;5055682;28;20036;-62
2022/07/01 10:02:33;;;;;;;2.40;2.20;;;10.90;99.90;;;;;;5050181;28;20316;-61
2022/07/01 10:05:07;;;;;;;2.10;1.80;;;10.90;99.90;;;;;;5050050;28;20040;-62
2022/07/01 10:08:06;;;;;;;3.78;1.95;;;10.90;99.90;;;;;;5055935;28;20020;-62
2022/07/01 10:10:49;;;;;;;2.75;2.15;;;10.90;99.90;;;;;;4976054;28;20066;-62
2022/07/01 10:13:17;;;;;;;;;;;11.00;99.90;;;;;;4978992;28;20097;-61
2022/07/01 10:15:48;;;;;;;4.30;1.90;;;11.00;99.90;;;;;;4963548;28;20261;-62
2022/07/01 10:18:26;;;;;;;3.15;2.15;;;10.90;99.90;;;;;;4970933;28;20026;-63
2022/07/01 10:20:55;;;;;;;2.88;1.70;;;10.90;99.90;;;;;;4975857;28;20045;-63
2022/07/01 10:23:23;;;;;;;3.95;2.28;;;10.90;99.90;;;;;;4975113;28;20503;-63
2022/07/01 10:25:54;;;;;;;2.85;2.58;;;10.90;99.90;;;;;;4972983;28;20042;-63
2022/07/01 10:28:27;;;;;;;3.95;3.42;;;11.00;99.90;;;;;;4968848;28;20145;-63
2022/07/01 10:31:02;;;;;;;4.22;2.35;;;11.00;99.90;;;;;;4977771;28;20046;-62
2022/07/01 10:33:41;;;;;;;7.05;2.30;;;11.10;99.90;;;;;;4974445;28;20041;-63
2022/07/01 10:36:22;;;;;;;3.05;2.35;;;11.10;99.90;;;;;;4973009;28;20418;-63
2022/07/01 10:39:07;;;;;;;2.47;2.20;;;11.10;99.90;;;;;;4970121;28;20052;-63
2022/07/01 10:41:53;;;;;;;2.95;2.17;;;11.10;99.90;;;;;;4976765;28;20599;-64
2022/07/01 10:44:23;;;;;;;5.38;2.17;;;11.10;99.90;;;;;;4979129;28;20032;-63
2022/07/01 10:46:59;;;;;;;2.80;2.00;;;11.10;99.90;;;;;;4989913;28;20047;-63
2022/07/01 10:49:42;;;;;;;2.40;2.10;;;11.10;99.90;;;;;;5053258;28;20077;-63
2022/07/01 10:52:18;;;;;;;;;;;11.00;99.90;;;;;;5053478;28;20452;-63
2022/07/01 10:54:47;;;;;;;2.97;1.50;;;11.00;99.90;;;;;;5050925;28;19999;-62
2022/07/01 11:00:01;;;;;;;2.33;1.08;;;11.00;99.90;;;;;;5055530;28;20507;-63
2022/07/01 11:02:32;;;;;;;1.73;1.30;;;11.00;99.90;;;;;;5048890;28;20139;-63
2022/07/01 11:05:13;;;;;;;3.38;1.33;;;11.00;99.90;;;;;;5049899;28;20020;-62
2022/07/01 11:07:44;;;;;;;2.13;1.30;;;11.00;99.90;;;;;;5056665;28;20035;-63
2022/07/01 11:10:13;;;;;;;1.30;1.00;;;11.00;99.90;;;;;;5057435;28;20436;-63
2022/07/01 11:12:43;;;;;;;1.48;1.02;;;11.00;99.90;;;;;;5049079;28;20491;-63
2022/07/01 11:15:12;;;;;;;1.77;0.90;;;11.00;99.90;;;;;;5053113;28;20044;-63
2022/07/01 11:17:48;;;;;;;1.38;0.80;;;11.00;99.90;;;;;;5055938;28;20032;-62
2022/07/01 11:20:15;;;;;;;1.33;0.73;;;10.90;99.90;;;;;;5062079;28;20421;-62
2022/07/01 11:22:43;;;;;;;1.52;0.90;;;10.90;99.90;;;;;;5055209;28;20027;-62
2022/07/01 11:25:13;;;;;;;3.65;1.67;;;10.90;99.90;;;;;;5058042;28;20028;-62
2022/07/01 11:27:45;;;;;;;1.77;1.02;;;10.90;99.90;;;;;;5065184;28;20024;-63
2022/07/01 11:30:13;;;;;;;2.13;0.82;;;10.90;99.90;;;;;;5057733;28;20086;-63
2022/07/01 11:32:43;;;;;;;2.22;1.17;;;10.90;99.90;;;;;;5062478;28;20033;-63
2022/07/01 11:41:06;;;;;;;2.20;1.10;;;10.90;99.90;;;;;;5058846;28;20040;-62
2022/07/01 11:43:35;;;;;;;1.30;0.90;;;10.90;99.90;;;;;;5053928;28;20071;-63
2022/07/01 11:46:05;;;;;;;1.35;0.80;;;10.90;99.90;;;;;;5055074;28;20025;-62
2022/07/01 11:48:40;;;;;;;0.65;0.65;;;10.90;99.90;;;;;;5068153;28;20032;-62
2022/07/01 11:51:14;;;;;;;1.83;1.10;;;10.90;99.90;;;;;;5052147;28;20442;-62
2022/07/01 11:53:44;;;;;;;1.00;0.90;;;10.90;99.90;;;;;;5053963;28;20886;-63
2022/07/01 11:56:12;;;;;;;1.35;0.80;;;10.90;99.90;;;;;;5056741;28;20020;-63
2022/07/01 11:58:48;;;;;;;1.27;0.70;;;10.90;99.90;;;;;;5056997;28;20016;-62
2022/07/01 12:01:41;;;;;;;0.80;0.73;;;10.90;99.90;;;;;;5056487;28;20090;-63
2022/07/01 12:04:10;;;;;;;0.95;0.80;;;10.90;99.90;;;;;;5050791;28;20056;-62
2022/07/01 12:06:39;;;;;;;2.08;1.08;;;10.90;99.90;;;;;;5058603;28;20546;-63
2022/07/01 12:09:06;;;;;;;2.72;1.70;;;10.90;99.90;;;;;;5063913;28;20033;-63
2022/07/01 12:11:34;;;;;;;2.22;1.30;;;10.80;99.90;;;;;;5055509;28;20550;-63
2022/07/01 12:14:01;;;;;;;1.90;1.20;;;10.80;99.90;;;;;;5054046;28;20033;-63
2022/07/01 12:16:37;;;;;;;1.30;1.10;;;10.80;99.90;;;;;;5063327;28;20026;-63
2022/07/01 12:19:04;;;;;;;1.60;1.30;;;10.80;99.90;;;;;;5062254;28;20056;-63
2022/07/01 12:21:46;;;;;;;2.65;1.17;;;10.80;99.90;;;;;;5058329;28;20090;-63
2022/07/01 12:24:15;;;;;;;1.63;1.23;;;10.80;99.90;;;;;;5051408;28;20055;-63
2022/07/01 12:26:48;;;;;;;1.52;1.10;;;10.70;99.90;;;;;;5057676;28;20025;-62
2022/07/01 12:29:25;;;;;;;3.22;1.55;;;10.70;99.90;;;;;;5055746;28;20047;-63
2022/07/01 12:32:00;;;;;;;1.40;1.30;;;10.80;99.90;;;;;;5048442;28;20033;-62
2022/07/01 12:34:46;;;;;;;2.47;1.40;;;10.70;99.90;;;;;;5049857;28;20025;-62
2022/07/01 12:37:15;;;;;;;1.67;1.30;;;10.70;99.90;;;;;;5037177;28;20036;-63
2022/07/01 12:40:03;;;;;;;1.65;1.42;;;10.70;99.90;;;;;;5054246;28;20087;-63
2022/07/01 12:42:40;;;;;;;2.70;1.25;;;10.60;99.90;;;;;;5050562;28;20033;-62
2022/07/01 12:45:10;;;;;;;1.70;1.38;;;10.60;99.90;;;;;;5049616;28;20033;-63
2022/07/01 12:47:39;;;;;;;1.73;1.30;;;10.60;99.90;;;;;;5054875;28;20123;-62
2022/07/01 12:50:21;;;;;;;2.80;1.30;;;10.50;99.90;;;;;;5057091;28;20013;-62
2022/07/01 12:53:12;;;;;;;1.48;1.38;;;10.50;99.90;;;;;;5051490;28;20096;-64
2022/07/01 12:55:44;;;;;;;1.95;1.70;;;10.50;99.90;;;;;;5051770;28;20029;-64
2022/07/01 12:58:20;;;;;;;1.63;1.25;;;10.50;99.90;;;;;;5057853;28;20144;-61
2022/07/01 13:00:50;;;;;;;2.25;1.65;;;10.50;99.90;;;;;;5053080;28;20048;-62
2022/07/01 13:03:23;;;;;;;1.65;1.45;;;10.50;99.90;;;;;;5050013;28;20126;-64
2022/07/01 13:05:51;;;;;;;1.92;1.55;;;10.50;99.90;;;;;;5058026;28;20171;-64
2022/07/01 13:08:19;;;;;;;2.53;1.33;;;10.50;99.90;;;;;;5051645;28;20505;-65
2022/07/01 13:10:48;;;;;;;1.88;1.52;;;10.50;99.90;;;;;;5051598;28;20068;-64
2022/07/01 13:13:20;;;;;;;1.58;1.48;;;10.50;99.90;;;;;;5050356;28;20073;-63
2022/07/01 13:15:47;;;;;;;2.23;1.63;;;10.60;99.90;;;;;;5054209;28;20032;-64
2022/07/01 13:18:15;;;;;;;2.30;1.80;;;10.60;99.90;;;;;;5050729;28;20505;-64
2022/07/01 13:20:44;;;;;;;3.03;2.10;;;10.60;99.90;;;;;;5053710;28;20035;-64